Time;durP1;ratioP1;P1;durP2;ratioP2;P2;SDS_P1;SDS_P2;PMS_P1;PMS_P2;Temp;Humidity;BMP_temperature;BMP_pressure;BME280_temperature;BME280_humidity;BME280_pressure;Samples;Min_cycle;Max_cycle;Signal;HPM_P1;HPM_P2
2022/04/13 00:00:13;;;;;;;27.30;12.63;;;6.90;99.90;;;5.50;74.65;101494.06;4972662;28;20063;-76
2022/04/13 00:02:40;;;;;;;21.75;11.20;;;6.90;99.90;;;5.50;74.73;101490.59;4977239;28;20513;-76
2022/04/13 00:05:08;;;;;;;34.45;11.80;;;6.90;99.90;;;5.43;74.74;101486.34;4976615;28;22292;-76
2022/04/13 00:07:35;;;;;;;24.95;12.25;;;6.90;99.90;;;5.42;75.04;101482.88;4976972;28;20030;-76
2022/04/13 00:10:03;;;;;;;23.35;11.68;;;6.90;99.90;;;5.40;75.16;101476.81;4960090;28;20034;-76
2022/04/13 00:12:29;;;;;;;24.23;10.70;;;6.80;99.90;;;5.32;75.09;101482.13;4959866;28;21614;-77
2022/04/13 00:14:55;;;;;;;35.85;12.75;;;6.80;99.90;;;5.34;75.28;101469.06;4962640;28;20034;-76
2022/04/13 00:17:22;;;;;;;26.67;12.63;;;6.80;99.90;;;5.34;75.26;101474.28;4944424;28;20058;-76
2022/04/13 00:19:48;;;;;;;28.63;12.88;;;6.80;99.90;;;5.30;74.91;101477.81;4960659;28;20027;-76
2022/04/13 00:22:14;;;;;;;24.25;11.93;;;6.80;99.90;;;5.32;74.94;101470.81;4970177;28;20430;-76
2022/04/13 00:24:40;;;;;;;21.83;10.95;;;6.80;99.90;;;5.30;74.78;101462.13;4963793;28;20046;-76
2022/04/13 00:27:06;;;;;;;27.52;13.20;;;6.70;99.90;;;5.26;75.18;101457.84;4975615;28;20141;-76
2022/04/13 00:29:32;;;;;;;24.42;12.02;;;6.70;99.90;;;5.27;74.89;101454.31;4958664;28;20459;-76
2022/04/13 00:31:59;;;;;;;23.38;12.48;;;6.70;99.90;;;5.25;75.03;101454.38;4960707;28;20045;-75
2022/04/13 00:34:26;;;;;;;27.55;12.10;;;6.70;99.90;;;5.24;75.15;101457.00;4961987;28;20081;-76
2022/04/13 00:36:52;;;;;;;21.60;12.10;;;6.70;99.90;;;5.20;75.21;101458.75;4965044;28;20033;-76
2022/04/13 00:39:17;;;;;;;23.88;11.95;;;6.70;99.90;;;5.21;75.16;101451.81;4961510;28;20488;-77
2022/04/13 00:41:43;;;;;;;30.67;12.95;;;6.70;99.90;;;5.19;75.08;101445.75;4963772;28;20692;-76
2022/04/13 00:44:11;;;;;;;25.48;12.10;;;6.60;99.90;;;5.18;75.28;101442.25;4964241;28;20030;-75
2022/04/13 00:46:38;;;;;;;22.50;12.27;;;6.60;99.90;;;5.16;74.83;101451.84;4961516;28;20046;-75
2022/04/13 00:49:07;;;;;;;28.65;12.25;;;6.60;99.90;;;5.12;75.08;101452.81;4964615;28;20058;-76
2022/04/13 00:51:33;;;;;;;24.50;12.45;;;6.60;99.90;;;5.14;74.95;101458.88;4955699;28;20127;-76
2022/04/13 00:54:00;;;;;;;22.45;12.50;;;6.60;99.90;;;5.12;74.75;101450.19;4961157;28;20098;-75
2022/04/13 00:56:29;;;;;;;24.17;12.82;;;6.60;99.90;;;5.15;74.84;101437.09;4965382;28;20058;-76
2022/04/13 00:59:16;;;;;;;25.38;12.57;;;6.60;99.90;;;5.11;74.78;101435.41;4963897;28;20023;-76
2022/04/13 01:01:49;;;;;;;;;;;6.60;99.90;;;5.04;75.26;101437.22;4963737;28;20031;-76
2022/04/13 01:04:16;;;;;;;20.95;10.63;;;6.50;99.90;;;4.99;75.24;101438.16;4962282;28;19960;-76
2022/04/13 01:06:44;;;;;;;25.30;11.85;;;6.50;99.90;;;4.98;75.18;101445.13;4963929;28;20045;-76
2022/04/13 01:09:15;;;;;;;25.88;12.35;;;6.50;99.90;;;5.02;74.89;101435.53;4961516;28;20401;-76
2022/04/13 01:11:41;;;;;;;24.20;12.18;;;6.40;99.90;;;5.01;75.23;101436.38;4974606;28;20046;-76
2022/04/13 01:14:09;;;;;;;23.90;11.60;;;6.50;99.90;;;5.01;75.10;101434.66;4966143;28;20050;-76
2022/04/13 01:16:39;;;;;;;28.67;11.73;;;6.50;99.90;;;5.02;75.07;101431.16;4945957;28;20055;-75
2022/04/13 01:19:07;;;;;;;24.83;12.45;;;6.50;99.90;;;5.03;74.90;101437.22;4961748;28;20018;-76
2022/04/13 01:21:58;;;;;;;23.35;11.48;;;6.50;99.90;;;5.03;74.68;101432.91;4960679;28;20097;-76
2022/04/13 01:24:25;;;;;;;25.52;11.50;;;6.50;99.90;;;5.02;75.05;101431.16;4963748;28;20035;-78
2022/04/13 01:26:51;;;;;;;24.73;12.40;;;6.50;99.90;;;5.04;74.74;101432.00;4959798;28;20081;-75
2022/04/13 01:29:17;;;;;;;24.98;12.15;;;6.50;99.90;;;5.04;74.58;101437.22;4963370;28;20423;-76
2022/04/13 01:31:45;;;;;;;30.73;9.68;;;6.50;99.90;;;5.00;74.78;101430.31;4962260;28;20041;-74
2022/04/13 01:34:13;;;;;;;22.63;11.52;;;6.50;99.90;;;5.03;74.68;101421.56;4961593;28;20038;-76
2022/04/13 01:36:39;;;;;;;16.80;8.93;;;6.50;99.90;;;5.02;74.26;101418.09;4961343;28;20491;-76
2022/04/13 01:39:08;;;;;;;22.35;10.20;;;6.50;99.90;;;5.03;74.36;101414.63;4944748;28;20376;-76
2022/04/13 01:41:34;;;;;;;22.88;11.57;;;6.50;99.90;;;5.08;74.09;101410.19;4979208;28;20101;-76
2022/04/13 01:44:00;;;;;;;15.23;6.47;;;6.50;99.90;;;5.05;73.87;101401.53;4972947;28;20042;-76
2022/04/13 01:48:54;;;;;;;21.02;9.70;;;6.60;99.90;;;5.08;74.03;101410.19;4992281;28;20821;-76
2022/04/13 01:51:20;;;;;;;20.75;11.40;;;6.50;99.90;;;5.08;74.26;101394.53;5007075;28;20033;-76
2022/04/13 01:53:50;;;;;;;22.05;11.10;;;6.60;99.90;;;5.06;74.07;101404.13;5001219;28;20468;-76
2022/04/13 01:56:18;;;;;;;24.60;11.32;;;6.60;99.90;;;5.12;74.26;101409.28;5009974;28;20478;-76
2022/04/13 01:58:44;;;;;;;25.67;11.30;;;6.50;99.90;;;5.09;74.55;101401.47;5000800;28;20030;-76
2022/04/13 02:01:11;;;;;;;20.20;12.10;;;6.60;99.90;;;5.08;74.74;101398.91;4985060;28;21031;-74
2022/04/13 02:03:37;;;;;;;25.67;11.75;;;6.50;99.90;;;5.03;75.06;101393.75;4983123;28;20041;-76
2022/04/13 02:06:03;;;;;;;22.17;11.77;;;6.50;99.90;;;5.03;75.53;101391.13;5002901;28;20041;-75
2022/04/13 02:08:30;;;;;;;23.27;12.43;;;6.50;99.90;;;5.04;75.20;101402.44;5001714;28;20418;-76
2022/04/13 02:10:56;;;;;;;23.50;11.75;;;6.50;99.90;;;5.00;74.84;101396.38;4983075;28;20030;-77
2022/04/13 02:13:22;;;;;;;24.13;11.80;;;6.50;99.90;;;5.03;75.05;101396.34;4999725;28;20028;-77
2022/04/13 02:15:49;;;;;;;19.45;11.30;;;6.50;99.90;;;5.01;74.68;101398.13;4999717;28;20079;-76
2022/04/13 02:18:15;;;;;;;25.52;11.75;;;6.50;99.90;;;5.01;74.71;101392.00;4993642;28;20053;-76
2022/04/13 02:20:41;;;;;;;23.80;11.52;;;6.40;99.90;;;4.96;74.74;101394.69;4984730;28;20481;-77
2022/04/13 02:23:07;;;;;;;31.00;12.38;;;6.40;99.90;;;4.98;74.60;101387.69;4981404;28;20037;-75
2022/04/13 02:25:35;;;;;;;23.60;11.02;;;6.40;99.90;;;4.93;74.97;101395.59;4984779;28;20109;-76
2022/04/13 02:28:06;;;;;;;23.55;11.43;;;6.40;99.90;;;4.94;74.45;101386.00;5001355;28;21142;-76
2022/04/13 02:30:32;;;;;;;23.30;12.38;;;6.40;99.90;;;4.93;74.53;101389.50;5000952;28;20192;-74
2022/04/13 02:32:59;;;;;;;22.83;12.77;;;6.40;99.90;;;4.87;74.79;101385.22;4980789;28;20080;-76
2022/04/13 02:35:25;;;;;;;20.30;11.88;;;6.40;99.90;;;4.88;74.44;101378.25;5000073;28;20076;-76
2022/04/13 02:37:51;;;;;;;22.45;11.70;;;6.40;99.90;;;4.88;74.52;101370.41;4985852;28;20147;-76
2022/04/13 02:40:17;;;;;;;23.73;11.68;;;6.30;99.90;;;4.81;74.45;101368.78;4999014;28;20544;-76
2022/04/13 02:42:43;;;;;;;25.17;12.70;;;6.30;99.90;;;4.84;74.22;101376.59;4983487;28;20109;-75
2022/04/13 02:45:10;;;;;;;23.52;11.52;;;6.30;99.90;;;4.79;74.58;101370.53;4981805;28;20032;-75
2022/04/13 02:47:36;;;;;;;23.25;11.38;;;6.30;99.90;;;4.78;74.46;101368.84;5002810;28;20045;-76
2022/04/13 02:50:06;;;;;;;23.08;11.10;;;6.30;99.90;;;4.76;74.32;101373.22;4982753;28;20095;-75
2022/04/13 02:52:33;;;;;;;22.65;11.82;;;6.20;99.90;;;4.75;74.37;101372.31;4997702;28;20033;-76
2022/04/13 02:55:00;;;;;;;26.65;11.00;;;6.20;99.90;;;4.65;74.81;101365.50;4998414;28;20032;-76
2022/04/13 02:57:26;;;;;;;19.00;9.88;;;6.10;99.90;;;4.60;74.90;101364.69;5000003;28;20395;-75
2022/04/13 02:59:52;;;;;;;20.90;11.15;;;6.10;99.90;;;4.64;74.87;101366.38;4999318;28;20018;-76
2022/04/13 03:02:19;;;;;;;21.52;10.68;;;6.10;99.90;;;4.58;75.39;101359.50;4982271;28;20513;-74
2022/04/13 03:04:47;;;;;;;18.60;8.73;;;6.10;99.90;;;4.54;75.22;101354.34;4998765;28;20551;-77
2022/04/13 03:07:16;;;;;;;18.85;10.63;;;6.10;99.90;;;4.57;75.43;101357.75;5000876;28;20109;-76
2022/04/13 03:09:43;;;;;;;22.30;11.90;;;6.10;99.90;;;4.64;75.20;101353.34;4981416;28;20042;-76
2022/04/13 03:12:11;;;;;;;20.35;10.77;;;6.10;99.90;;;4.62;75.38;101352.47;4998404;28;20394;-76
2022/04/13 03:14:40;;;;;;;24.08;10.85;;;6.10;99.90;;;4.60;75.67;101349.03;4999566;28;20053;-76
2022/04/13 03:17:07;;;;;;;18.00;10.13;;;6.10;99.90;;;4.57;75.43;101360.38;4982451;28;20503;-75
2022/04/13 03:19:34;;;;;;;23.38;10.00;;;6.10;99.90;;;4.60;75.39;101356.84;4998461;28;20029;-77
2022/04/13 03:22:00;;;;;;;18.58;9.02;;;6.10;99.90;;;4.59;75.46;101358.59;5000060;28;20026;-75
2022/04/13 03:24:26;;;;;;;24.50;10.40;;;6.10;99.90;;;4.61;75.86;101363.81;4982241;28;20438;-76
2022/04/13 03:26:52;;;;;;;22.55;11.30;;;6.10;99.90;;;4.66;76.18;101356.78;4981499;28;20478;-77
2022/04/13 03:29:19;;;;;;;22.08;11.35;;;6.10;99.90;;;4.61;75.94;101362.06;4980951;28;21220;-76
2022/04/13 03:31:45;;;;;;;25.63;10.65;;;6.10;99.90;;;4.57;76.27;101354.28;4999158;28;20038;-78
2022/04/13 03:34:11;;;;;;;19.92;10.70;;;6.10;99.90;;;4.60;76.57;101355.13;4997835;28;20088;-78
2022/04/13 03:36:40;;;;;;;25.58;12.40;;;6.10;99.90;;;4.57;76.73;101349.06;4999509;28;20038;-77
2022/04/13 03:39:07;;;;;;;21.75;11.43;;;6.10;99.90;;;4.59;76.72;101349.94;5002793;28;20165;-77
2022/04/13 03:41:37;;;;;;;20.60;11.63;;;6.10;99.90;;;4.54;76.93;101341.31;4993025;28;20137;-78
2022/04/13 03:44:04;;;;;;;25.42;11.90;;;6.00;99.90;;;4.56;76.65;101342.13;4998890;28;20029;-78
2022/04/13 03:46:31;;;;;;;21.48;11.18;;;6.00;99.90;;;4.53;76.76;101340.41;4999862;28;20030;-78
2022/04/13 03:48:58;;;;;;;20.23;11.85;;;6.00;99.90;;;4.55;76.58;101338.66;5000122;28;20042;-77
2022/04/13 03:51:24;;;;;;;21.67;10.98;;;6.00;99.90;;;4.55;76.55;101348.22;4998244;28;20018;-78
2022/04/13 03:53:50;;;;;;;23.08;11.48;;;6.00;99.90;;;4.54;76.50;101346.53;4981660;28;20079;-77
2022/04/13 03:56:17;;;;;;;17.95;9.77;;;6.00;99.90;;;4.54;76.34;101336.94;4982541;28;20029;-79
2022/04/13 03:58:43;;;;;;;22.45;10.55;;;6.10;99.90;;;4.55;76.17;101336.06;4999115;28;20054;-76
2022/04/13 04:01:10;;;;;;;18.20;8.50;;;6.10;99.90;;;4.52;75.91;101336.94;4999762;28;20029;-77
2022/04/13 04:03:37;;;;;;;16.92;8.20;;;6.00;99.90;;;4.48;75.92;101342.22;4997932;28;20057;-78
2022/04/13 04:06:04;;;;;;;22.02;11.18;;;6.00;99.90;;;4.54;75.83;101343.91;4983618;28;20120;-77
2022/04/13 04:08:31;;;;;;;27.77;11.77;;;6.10;99.90;;;4.57;75.72;101344.72;4999641;28;20030;-80
2022/04/13 04:10:57;;;;;;;26.48;11.30;;;6.10;99.90;;;4.56;75.60;101353.44;4986156;28;20041;-77
2022/04/13 04:13:23;;;;;;;22.08;10.77;;;6.10;99.90;;;4.63;75.55;101355.09;5002614;28;20026;-78
2022/04/13 04:15:49;;;;;;;23.40;10.63;;;6.10;99.90;;;4.64;75.47;101356.78;4985378;28;20069;-78
2022/04/13 04:18:15;;;;;;;22.60;11.63;;;6.10;99.90;;;4.66;74.96;101357.63;4985738;28;20030;-78
2022/04/13 04:20:42;;;;;;;21.23;11.30;;;6.10;99.90;;;4.69;75.29;101352.41;5001891;28;20098;-78
2022/04/13 04:23:08;;;;;;;22.55;12.38;;;6.20;99.90;;;4.77;74.86;101356.66;4990586;28;22473;-78
2022/04/13 04:25:34;;;;;;;21.98;12.00;;;6.20;99.90;;;4.83;74.74;101357.44;5003347;28;20152;-77
2022/04/13 04:28:00;;;;;;;19.30;10.80;;;6.20;99.90;;;4.86;74.52;101351.31;5003243;28;20026;-78
2022/04/13 04:30:26;;;;;;;23.80;10.50;;;6.20;99.90;;;4.71;74.31;101337.59;4995847;28;20042;-78
2022/04/13 04:32:52;;;;;;;24.83;11.40;;;6.20;99.90;;;4.87;74.62;101333.03;5002125;28;20518;-77
2022/04/13 04:35:18;;;;;;;21.45;11.13;;;6.30;99.90;;;4.92;73.90;101331.25;4986259;28;20030;-76
2022/04/13 04:37:44;;;;;;;22.42;11.25;;;6.40;99.90;;;5.10;73.48;101330.13;4984730;28;20022;-78
2022/04/13 04:40:11;;;;;;;18.42;10.55;;;6.40;99.90;;;5.20;72.68;101323.00;5004343;28;20044;-77
2022/04/13 04:42:50;;;;;;;20.65;11.00;;;6.50;99.90;;;5.34;72.17;101317.59;4983564;28;20017;-78
2022/04/13 04:45:19;;;;;;;27.15;11.48;;;6.60;99.90;;;5.50;71.49;101313.81;4973934;28;20120;-79
2022/04/13 04:47:50;;;;;;;24.08;11.35;;;6.70;99.90;;;5.52;70.79;101313.81;4987308;28;20080;-78
2022/04/13 04:50:18;;;;;;;38.08;20.05;;;6.90;99.90;;;5.85;70.15;101320.25;4999407;28;20049;-78
2022/04/13 04:52:45;;;;;;;42.75;19.42;;;7.10;99.90;;;6.08;69.72;101317.22;5000541;28;20025;-78
2022/04/13 04:55:16;;;;;;;37.10;17.35;;;7.20;99.90;;;6.23;68.67;101323.91;5002053;28;21213;-78
2022/04/13 04:57:43;;;;;;;26.92;11.52;;;7.30;99.90;;;6.32;68.09;101328.97;5002844;28;20549;-77
2022/04/13 05:00:20;;;;;;;26.65;11.93;;;7.50;99.90;;;6.66;67.37;101330.91;5001911;28;20045;-78
2022/04/13 05:02:50;;;;;;;27.60;13.50;;;7.60;99.90;;;6.66;66.77;101338.75;4984038;28;20036;-78
2022/04/13 05:05:18;;;;;;;29.65;12.60;;;7.70;99.90;;;7.07;65.54;101339.63;5002970;28;20142;-75
2022/04/13 05:07:44;;;;;;;25.17;12.10;;;7.90;99.90;;;7.33;64.51;101343.44;4999044;28;20032;-76
2022/04/13 05:10:11;;;;;;;26.38;11.82;;;8.10;99.90;;;7.42;63.98;101348.44;4998686;28;20128;-76
2022/04/13 05:12:57;;;;;;;26.33;11.82;;;8.10;99.90;;;7.54;63.45;101339.44;5000959;28;20022;-76
2022/04/13 05:15:23;;;;;;;25.23;11.88;;;8.20;99.90;;;7.64;63.04;101340.91;4985811;28;20053;-76
2022/04/13 05:17:49;;;;;;;25.17;11.43;;;8.40;99.90;;;7.76;62.40;101342.41;5000830;28;20524;-75
2022/04/13 05:20:15;;;;;;;28.88;11.55;;;8.40;99.90;;;7.90;62.33;101342.03;4983362;28;20022;-77
2022/04/13 05:22:42;;;;;;;22.73;11.48;;;8.50;99.90;;;7.96;61.88;101350.59;4997572;28;20041;-77
2022/04/13 05:25:17;;;;;;;21.85;11.68;;;8.50;99.90;;;7.79;62.22;101347.53;5002285;28;20958;-75
2022/04/13 05:27:44;;;;;;;22.35;12.40;;;8.60;99.90;;;7.84;61.95;101352.66;5002723;28;20088;-77
2022/04/13 05:30:15;;;;;;;26.85;11.88;;;8.60;99.90;;;7.87;61.92;101356.09;4983941;28;20042;-76
2022/04/13 05:32:58;;;;;;;25.88;11.80;;;8.60;99.90;;;7.99;61.04;101360.13;5000051;28;20029;-77
2022/04/13 05:35:28;;;;;;;24.17;11.32;;;8.70;99.90;;;8.34;60.90;101361.00;5000323;28;20702;-76
2022/04/13 05:37:55;;;;;;;24.83;11.02;;;8.90;99.90;;;8.58;59.70;101364.75;5009947;28;20026;-76
2022/04/13 05:40:24;;;;;;;21.20;10.80;;;9.10;99.90;;;9.04;58.76;101368.66;5008555;28;20026;-77
2022/04/13 05:42:50;;;;;;;23.85;10.50;;;9.30;99.90;;;9.53;57.53;101361.03;4968495;28;20043;-76
2022/04/13 05:45:17;;;;;;;27.58;11.60;;;9.60;99.90;;;10.11;56.00;101373.97;5002271;28;20099;-76
2022/04/13 05:47:44;;;;;;;19.80;10.98;;;9.80;99.90;;;10.17;55.33;101368.50;4984536;28;20045;-77
2022/04/13 05:50:11;;;;;;;20.85;10.48;;;10.00;99.90;;;9.71;55.49;101367.44;4984932;28;20044;-77
2022/04/13 05:52:39;;;;;;;29.27;11.02;;;10.10;99.90;;;10.15;55.41;101368.59;5000547;28;20033;-76
2022/04/13 05:55:06;;;;;;;20.63;11.02;;;10.10;99.90;;;10.35;54.24;101373.19;5002478;28;20034;-77
2022/04/13 05:57:33;;;;;;;22.73;11.40;;;10.40;99.90;;;10.63;53.66;101366.94;4985958;28;20473;-76
2022/04/13 05:59:59;;;;;;;28.52;10.82;;;10.50;99.90;;;10.15;53.74;101370.34;4967711;28;20547;-76
2022/04/13 06:02:26;;;;;;;21.42;10.13;;;10.50;99.90;;;9.97;55.32;101385.00;5002461;28;20042;-77
2022/04/13 06:04:52;;;;;;;23.45;11.68;;;10.40;99.90;;;10.19;55.17;101390.38;4983895;28;20033;-76
2022/04/13 06:07:18;;;;;;;22.65;11.43;;;10.30;99.90;;;9.61;55.65;101388.78;5003379;28;20394;-77
2022/04/13 06:09:44;;;;;;;25.38;11.35;;;10.20;99.90;;;9.51;56.01;101404.91;5000369;28;20081;-76
2022/04/13 06:12:10;;;;;;;22.00;11.60;;;10.10;99.90;;;9.52;56.35;101402.19;4968647;28;20509;-77
2022/04/13 06:14:36;;;;;;;24.30;11.02;;;10.00;99.90;;;9.35;56.63;101409.75;4999473;28;20033;-76
2022/04/13 06:17:04;;;;;;;17.60;8.98;;;10.00;99.90;;;9.06;56.92;101406.25;5000536;28;20029;-77
2022/04/13 06:19:29;;;;;;;24.85;10.73;;;9.90;99.90;;;9.27;56.61;101402.13;4980303;28;20030;-77
2022/04/13 06:21:55;;;;;;;23.33;10.93;;;10.10;99.90;;;9.61;56.04;101407.19;4983063;28;20079;-77
2022/04/13 06:24:21;;;;;;;23.73;11.95;;;10.20;99.90;;;10.07;55.71;101410.94;4965991;28;20533;-74
2022/04/13 06:26:47;;;;;;;26.10;11.57;;;10.40;99.90;;;10.06;54.71;101408.34;4983624;28;20038;-76
2022/04/13 06:29:13;;;;;;;23.00;11.48;;;10.50;99.90;;;10.18;54.75;101412.38;4984229;28;20041;-76
2022/04/13 06:31:39;;;;;;;25.25;11.27;;;10.70;99.90;;;10.57;54.11;101409.28;4981906;28;20037;-76
2022/04/13 06:34:05;;;;;;;20.95;11.55;;;10.80;99.90;;;10.61;53.57;101409.13;5000947;28;20045;-76
2022/04/13 06:36:31;;;;;;;22.55;11.30;;;11.00;99.90;;;10.70;53.68;101410.56;4999061;28;20034;-76
2022/04/13 06:38:57;;;;;;;23.63;11.95;;;11.00;99.90;;;10.89;53.16;101421.28;4998193;28;20034;-76
2022/04/13 06:41:23;;;;;;;19.83;10.93;;;11.10;99.90;;;11.11;51.78;101429.25;4998616;28;20030;-76
2022/04/13 06:43:52;;;;;;;21.33;11.43;;;11.40;99.90;;;11.76;51.00;101421.47;4982653;28;20084;-76
2022/04/13 06:46:19;;;;;;;31.45;11.93;;;11.60;99.90;;;11.59;50.58;101424.78;4952772;28;20026;-76
2022/04/13 06:48:45;;;;;;;20.45;11.85;;;11.90;99.90;;;12.09;50.39;101420.13;5000753;28;20034;-77
2022/04/13 06:51:12;;;;;;;21.27;10.07;;;11.90;99.90;;;11.77;50.09;101425.81;4982400;28;20037;-77
2022/04/13 06:53:38;;;;;;;27.77;12.07;;;12.20;99.90;;;12.71;48.90;101433.31;4999341;28;20053;-77
2022/04/13 06:56:04;;;;;;;23.95;12.18;;;12.60;99.90;;;13.24;47.75;101429.16;5001014;28;20510;-76
2022/04/13 06:58:30;;;;;;;21.10;10.65;;;12.80;99.90;;;13.20;47.40;101439.03;4999923;28;20064;-76
2022/04/13 07:00:57;;;;;;;23.77;11.48;;;13.20;99.90;;;13.57;46.46;101439.97;5001349;28;20548;-77
2022/04/13 07:03:25;;;;;;;28.75;12.27;;;13.70;99.90;;;14.49;45.44;101437.19;5000485;28;20022;-76
2022/04/13 07:05:51;;;;;;;22.65;11.95;;;14.10;99.90;;;14.83;44.63;101449.56;4986359;28;20390;-77
2022/04/13 07:08:17;;;;;;;24.58;11.45;;;14.20;99.60;;;14.31;44.87;101444.28;4989526;28;20052;-77
2022/04/13 07:10:43;;;;;;;23.45;12.13;;;14.40;98.90;;;14.53;44.44;101457.28;5000869;28;20073;-77
2022/04/13 07:13:14;;;;;;;26.52;11.75;;;14.40;98.40;;;14.25;44.56;101455.19;4974912;28;20051;-77
2022/04/13 07:15:40;;;;;;;24.83;12.50;;;14.50;98.20;;;14.70;44.25;101467.91;4985182;28;20034;-77
2022/04/13 07:18:07;;;;;;;21.58;12.13;;;14.80;98.00;;;15.16;43.42;101467.25;4998100;28;20030;-77
2022/04/13 07:20:32;;;;;;;25.52;12.75;;;15.20;97.60;;;15.94;42.30;101475.38;4998730;28;20123;-77
2022/04/13 07:22:58;;;;;;;22.25;11.82;;;15.30;97.10;;;15.46;42.75;101482.44;4998379;28;20042;-77
2022/04/13 07:25:24;;;;;;;20.45;10.88;;;15.50;96.90;;;15.69;42.41;101491.81;5001447;28;20065;-76
2022/04/13 07:27:51;;;;;;;21.25;11.23;;;15.80;96.00;;;15.27;42.00;101490.53;4986497;28;20113;-76
2022/04/13 07:30:17;;;;;;;23.25;11.85;;;15.90;96.50;;;16.04;42.46;101487.16;4983114;28;20041;-77
2022/04/13 07:32:46;;;;;;;22.83;11.75;;;16.10;95.60;;;15.84;41.67;101498.09;4998831;28;20030;-77
2022/04/13 07:35:14;;;;;;;23.40;12.25;;;16.20;95.80;;;16.11;42.26;101501.84;4962745;28;20057;-76
2022/04/13 07:37:40;;;;;;;21.70;12.05;;;16.10;94.90;;;15.72;42.15;101502.28;4998559;28;20441;-76
2022/04/13 07:40:12;;;;;;;22.73;11.90;;;16.30;95.10;;;15.94;42.07;101505.44;4980773;28;20038;-77
2022/04/13 07:42:39;;;;;;;24.52;12.40;;;16.40;94.90;;;16.09;41.99;101509.03;5001556;28;20088;-77
2022/04/13 07:45:07;;;;;;;20.38;12.73;;;16.50;94.80;;;16.11;41.89;101517.78;4971408;28;20565;-78
2022/04/13 07:47:33;;;;;;;29.60;12.82;;;16.70;94.50;;;16.70;40.73;101520.53;4960939;28;20098;-77
2022/04/13 07:49:59;;;;;;;23.80;12.30;;;16.90;94.00;;;16.85;40.66;101525.91;4947703;28;20057;-80
2022/04/13 07:52:25;;;;;;;21.33;12.52;;;17.20;93.80;;;16.65;40.48;101529.72;4981474;28;20541;-80
2022/04/13 07:54:51;;;;;;;25.05;13.15;;;17.10;93.80;;;16.41;41.26;101535.53;4961530;28;20405;-78
2022/04/13 07:57:17;;;;;;;22.20;12.30;;;17.20;93.70;;;16.63;40.98;101536.91;4986783;28;20108;-77
2022/04/13 07:59:44;;;;;;;21.88;12.40;;;17.30;93.90;;;16.91;40.63;101529.06;4986386;28;20639;-77
2022/04/13 08:02:10;;;;;;;23.77;12.98;;;17.50;93.00;;;16.68;40.70;101543.69;4983020;28;20672;-78
2022/04/13 08:04:37;;;;;;;21.45;12.52;;;17.40;93.60;;;16.83;41.12;101549.94;5004103;28;20057;-77
2022/04/13 08:07:03;;;;;;;20.63;11.95;;;17.50;93.50;;;16.97;41.07;101547.28;5001197;28;20030;-77
2022/04/13 08:09:29;;;;;;;25.40;12.10;;;17.40;93.00;;;16.73;40.93;101544.25;5004026;28;20048;-77
2022/04/13 08:11:55;;;;;;;23.98;12.05;;;17.40;92.80;;;16.43;41.07;101554.03;5003044;28;20021;-77
2022/04/13 08:14:22;;;;;;;22.15;12.13;;;17.30;93.10;;;16.40;41.45;101547.97;4985795;28;20117;-77
2022/04/13 08:16:50;;;;;;;23.08;12.57;;;17.40;93.50;;;16.65;41.16;101553.63;4982308;28;20510;-77
2022/04/13 08:19:16;;;;;;;25.23;12.93;;;17.40;92.80;;;16.48;41.56;101554.63;5004122;28;20483;-76
2022/04/13 08:21:43;;;;;;;24.75;12.63;;;17.10;93.10;;;15.78;42.76;101550.56;4984384;28;21771;-76
2022/04/13 08:24:09;;;;;;;27.42;13.02;;;17.10;93.80;;;16.35;42.53;101552.69;4982935;28;20743;-77
2022/04/13 08:26:35;;;;;;;25.77;12.45;;;17.20;93.60;;;16.64;42.10;101557.25;4985457;28;20038;-77
2022/04/13 08:29:02;;;;;;;22.02;11.10;;;17.30;92.90;;;16.01;42.20;101555.56;5008911;28;20454;-77
2022/04/13 08:31:27;;;;;;;24.27;12.77;;;17.20;93.20;;;16.46;41.63;101568.03;5007582;28;20493;-76
2022/04/13 08:33:53;;;;;;;23.17;12.57;;;17.50;93.70;;;17.18;41.23;101566.41;4987465;28;20112;-77
2022/04/13 08:36:19;;;;;;;27.95;13.38;;;17.80;93.50;;;17.42;40.50;101564.03;5019761;28;20029;-77
2022/04/13 08:38:45;;;;;;;22.05;11.60;;;18.00;93.00;;;17.51;40.58;101569.75;4990317;28;20037;-77
2022/04/13 08:41:29;;;;;;;22.27;12.40;;;18.20;92.80;;;17.62;40.15;101569.94;4974694;28;20029;-77
2022/04/13 08:44:11;;;;;;;27.00;12.80;;;18.30;93.00;;;17.36;40.58;101571.56;5003137;28;20751;-76
2022/04/13 08:46:40;;;;;;;22.55;12.70;;;18.20;92.90;;;17.49;40.92;101569.84;4985391;28;20121;-77
2022/04/13 08:49:12;;;;;;;24.65;13.05;;;18.20;92.40;;;17.20;40.82;101576.97;5001929;28;20041;-76
2022/04/13 08:51:39;;;;;;;22.30;13.25;;;17.90;91.70;;;16.78;40.92;101576.78;4985509;28;20034;-77
2022/04/13 08:54:20;;;;;;;21.77;13.07;;;17.70;92.10;;;16.51;41.61;101570.41;4982808;28;20046;-77
2022/04/13 08:56:54;;;;;;;22.02;13.45;;;17.40;92.10;;;16.14;41.73;101570.72;5000638;28;20022;-77
2022/04/13 08:59:48;;;;;;;28.75;13.88;;;17.20;92.60;;;15.84;42.40;101567.97;5006803;28;20156;-77
2022/04/13 09:02:56;;;;;;;28.48;14.43;;;16.90;92.80;;;15.72;42.52;101564.22;4991603;28;20030;-77
2022/04/13 09:05:28;;;;;;;28.30;13.27;;;16.80;93.50;;;15.61;43.25;101558.56;5001861;28;20083;-77
2022/04/13 09:08:05;;;;;;;27.92;13.35;;;16.70;93.00;;;15.55;43.41;101561.56;5000263;28;20102;-77
2022/04/13 09:10:32;;;;;;;25.58;14.00;;;16.60;93.60;;;15.55;43.74;101551.81;4987003;28;20052;-77
2022/04/13 09:12:59;;;;;;;25.08;14.20;;;16.60;94.00;;;15.54;43.74;101554.56;5001477;28;20042;-76
2022/04/13 09:15:26;;;;;;;29.30;13.50;;;16.60;94.20;;;15.59;44.10;101553.38;4988461;28;20033;-77
2022/04/13 09:17:52;;;;;;;25.30;12.45;;;16.60;93.70;;;15.53;43.82;101552.84;4983414;28;20045;-76
2022/04/13 09:20:18;;;;;;;22.63;13.00;;;16.60;93.30;;;15.47;43.50;101547.88;4983020;28;20021;-77
2022/04/13 09:22:44;;;;;;;25.33;13.90;;;16.40;93.40;;;15.28;44.01;101545.34;5002554;28;20046;-77
2022/04/13 09:25:11;;;;;;;31.48;14.35;;;16.50;93.80;;;15.52;44.03;101536.03;5000732;28;20093;-77
2022/04/13 09:27:38;;;;;;;23.60;14.13;;;16.60;94.70;;;15.90;44.31;101542.91;5001296;28;20037;-76
2022/04/13 09:30:06;;;;;;;27.52;15.07;;;16.60;94.70;;;15.87;44.53;101540.38;5000623;28;20038;-77
2022/04/13 09:32:34;;;;;;;29.60;14.85;;;16.70;94.30;;;16.10;43.55;101539.09;5000582;28;20516;-77
2022/04/13 09:35:02;;;;;;;27.88;14.75;;;16.90;93.80;;;16.26;43.29;101555.00;4984193;28;20048;-77
2022/04/13 09:37:29;;;;;;;25.90;14.57;;;17.10;93.70;;;16.20;43.06;101546.47;4985246;28;20036;-76
2022/04/13 09:39:56;;;;;;;27.40;14.73;;;17.10;93.60;;;16.20;43.40;101538.50;5000025;28;20041;-76
2022/04/13 09:42:29;;;;;;;28.75;15.00;;;17.10;93.20;;;16.04;43.02;101537.63;4983030;28;20022;-77
2022/04/13 09:44:57;;;;;;;24.20;14.32;;;17.10;93.70;;;15.99;43.62;101545.03;4991083;28;20038;-76
2022/04/13 09:47:31;;;;;;;28.73;15.52;;;17.10;94.00;;;16.15;43.84;101535.22;4984478;28;20043;-76
2022/04/13 09:49:57;;;;;;;28.58;15.48;;;17.20;93.80;;;16.30;43.34;101532.63;4983233;28;20045;-76
2022/04/13 09:52:41;;;;;;;26.38;15.10;;;17.20;93.40;;;16.21;43.11;101536.69;4983484;28;20022;-77
2022/04/13 09:55:09;;;;;;;31.67;15.70;;;17.10;93.40;;;16.12;43.49;101534.56;4985020;28;20116;-77
2022/04/13 09:57:36;;;;;;;26.17;14.75;;;17.00;94.00;;;15.98;44.08;101536.22;5000694;28;20041;-77
2022/04/13 10:00:07;;;;;;;25.75;15.23;;;17.10;93.70;;;16.24;43.38;101532.97;5003148;28;20497;-77
2022/04/13 10:02:43;;;;;;;27.00;15.70;;;17.30;94.20;;;16.59;43.39;101533.59;4984021;28;20637;-77
2022/04/13 10:05:22;;;;;;;29.10;15.20;;;17.40;94.10;;;16.80;42.85;101532.38;4999796;28;20029;-76
2022/04/13 10:08:09;;;;;;;27.67;14.80;;;17.60;93.30;;;16.99;42.64;101539.22;5003023;28;20037;-76
2022/04/13 10:10:41;;;;;;;29.33;15.30;;;17.80;94.00;;;17.00;42.89;101539.13;4999983;28;20045;-76
2022/04/13 10:13:11;;;;;;;30.95;15.52;;;17.80;92.60;;;16.97;42.33;101538.44;4999137;28;20034;-77